Time;durP1;ratioP1;P1;durP2;ratioP2;P2;SDS_P1;SDS_P2;PMS_P1;PMS_P2;Temp;Humidity;BMP_temperature;BMP_pressure;BME280_temperature;BME280_humidity;BME280_pressure;Samples;Min_cycle;Max_cycle;Signal;HPM_P1;HPM_P2
2021/08/15 01:49:11;;;;;;;13.50;12.30;;;21.10;99.90;;;;;;5797117;24;20467;-88
2021/08/15 02:20:17;;;;;;;15.20;13.77;;;20.70;99.90;;;;;;5776783;24;20455;-88
2021/08/15 02:23:18;;;;;;;14.37;13.07;;;20.60;99.90;;;;;;5868601;24;20476;-88
2021/08/15 02:32:51;;;;;;;14.13;12.83;;;20.50;99.90;;;;;;6020154;23;20789;-88
2021/08/15 03:03:03;;;;;;;12.80;11.77;;;20.30;99.90;;;;;;5868845;24;20423;-88
2021/08/15 03:17:08;;;;;;;;;;;;;;;;;;;;;
2021/08/15 03:20:56;;;;;;;14.90;13.60;;;20.30;99.90;;;;;;5842878;24;20425;-88
2021/08/15 03:37:00;;;;;;;;;;;;;;;;;;;;;
2021/08/15 03:43:27;;;;;;;13.47;12.37;;;20.50;99.90;;;;;;5930111;24;20904;-88
2021/08/15 03:46:31;;;;;;;13.00;11.77;;;20.40;99.90;;;;;;5956680;23;20449;-88
2021/08/15 03:49:26;;;;;;;13.47;12.37;;;20.40;99.90;;;;;;5923948;24;20478;-88
2021/08/15 03:56:13;;;;;;;12.93;11.70;;;20.40;99.90;;;;;;5919699;23;20447;-88
2021/08/15 03:59:09;;;;;;;13.93;12.63;;;20.40;99.90;;;;;;6036102;23;20426;-88
2021/08/15 04:14:46;;;;;;;14.10;13.00;;;20.20;99.90;;;;;;5841058;24;20807;-88
2021/08/15 04:21:37;;;;;;;15.17;13.93;;;20.00;99.90;;;;;;5788887;24;20473;-88
2021/08/15 04:31:08;;;;;;;14.63;13.20;;;19.80;99.90;;;;;;5837965;24;20556;-88
2021/08/15 04:34:25;;;;;;;15.70;14.13;;;19.80;99.90;;;;;;5924135;24;20397;-88
2021/08/15 04:37:37;;;;;;;15.60;14.10;;;19.80;99.90;;;;;;6062994;23;20461;-83
2021/08/15 04:40:07;;;;;;;14.83;13.53;;;19.80;99.90;;;;;;6050298;23;20431;-86
2021/08/15 04:42:36;;;;;;;15.33;14.03;;;19.70;99.90;;;;;;6154754;23;20409;-85
2021/08/15 04:45:06;;;;;;;15.93;14.53;;;19.70;99.90;;;;;;6199030;23;20414;-86
2021/08/15 04:47:34;;;;;;;16.97;15.17;;;19.70;99.90;;;;;;6199135;23;20486;-85
2021/08/15 04:50:01;;;;;;;14.90;13.70;;;19.70;99.90;;;;;;6199490;23;20404;-86
2021/08/15 04:52:30;;;;;;;15.60;14.20;;;19.70;99.90;;;;;;6198959;23;20501;-86
2021/08/15 04:54:56;;;;;;;17.30;15.90;;;19.70;99.90;;;;;;6199056;23;20420;-85
2021/08/15 04:57:23;;;;;;;18.70;16.90;;;19.70;99.90;;;;;;6199613;23;20440;-86
2021/08/15 04:59:50;;;;;;;18.63;17.10;;;19.70;99.90;;;;;;6199376;23;20419;-86
2021/08/15 05:02:18;;;;;;;19.80;18.00;;;19.70;99.90;;;;;;6199026;23;20406;-86
2021/08/15 05:04:45;;;;;;;18.83;17.33;;;19.80;99.90;;;;;;6201663;23;20473;-86
2021/08/15 05:07:19;;;;;;;18.93;17.33;;;19.90;99.90;;;;;;6199168;23;20422;-86
2021/08/15 05:13:32;;;;;;;;;;;;;;;;;;;;;
2021/08/15 05:20:05;;;;;;;;;;;;;;;;;;;;;
2021/08/15 05:29:22;;;;;;;17.93;16.10;;;20.20;99.90;;;;;;5922100;24;20422;-84
2021/08/15 05:31:50;;;;;;;18.67;17.07;;;20.20;99.90;;;;;;6095221;23;20454;-82
2021/08/15 05:34:17;;;;;;;18.13;16.37;;;20.00;99.90;;;;;;6199302;23;20414;-83
2021/08/15 05:36:44;;;;;;;18.53;16.73;;;19.90;99.90;;;;;;6198835;23;20440;-83
2021/08/15 05:39:11;;;;;;;19.97;18.20;;;20.00;99.90;;;;;;6199160;23;20500;-84
2021/08/15 05:41:46;;;;;;;19.07;17.20;;;20.10;99.90;;;;;;6199403;23;20406;-83
2021/08/15 05:44:20;;;;;;;19.17;17.10;;;20.10;99.90;;;;;;6199306;23;20766;-84
2021/08/15 05:47:02;;;;;;;;;;;;;;;;;;;;;
2021/08/15 05:49:30;;;;;;;17.90;16.30;;;20.30;99.90;;;;;;6196541;23;20447;-84
2021/08/15 05:52:00;;;;;;;19.33;16.50;;;20.40;99.90;;;;;;6198579;23;20467;-84
2021/08/15 05:54:31;;;;;;;16.17;14.43;;;20.50;99.90;;;;;;6198669;23;20508;-86
2021/08/15 05:56:58;;;;;;;17.27;15.47;;;20.60;99.90;;;;;;6197934;23;20429;-86
2021/08/15 05:59:30;;;;;;;17.30;15.70;;;20.70;99.90;;;;;;6196912;23;20481;-86
2021/08/15 06:01:57;;;;;;;19.90;15.80;;;20.70;99.90;;;;;;6197247;23;20403;-86
2021/08/15 06:04:24;;;;;;;16.67;14.97;;;20.70;99.90;;;;;;6198861;23;20505;-83
2021/08/15 06:06:51;;;;;;;15.50;14.07;;;20.90;99.90;;;;;;6198666;23;20453;-83
2021/08/15 06:09:19;;;;;;;15.90;14.47;;;20.90;99.90;;;;;;6198023;23;20411;-83
2021/08/15 06:11:49;;;;;;;18.43;16.43;;;21.00;99.90;;;;;;6198101;23;20442;-83
2021/08/15 06:14:18;;;;;;;16.60;14.90;;;21.10;99.90;;;;;;6198990;23;20521;-83
2021/08/15 06:16:52;;;;;;;15.10;13.80;;;21.20;99.90;;;;;;6198734;23;20711;-84
2021/08/15 06:19:18;;;;;;;15.37;13.87;;;21.40;99.90;;;;;;6198692;23;20385;-86
2021/08/15 06:21:45;;;;;;;16.67;15.17;;;21.50;99.90;;;;;;6197426;23;20412;-86
2021/08/15 06:24:12;;;;;;;17.07;15.47;;;21.50;99.90;;;;;;6197796;23;20411;-86
2021/08/15 06:26:39;;;;;;;15.37;14.07;;;21.60;99.90;;;;;;6197855;23;20411;-86
2021/08/15 06:29:07;;;;;;;14.50;13.10;;;21.70;99.90;;;;;;6197929;23;20407;-86
2021/08/15 06:31:38;;;;;;;15.53;14.07;;;21.90;99.90;;;;;;6198008;23;20443;-86
2021/08/15 06:34:12;;;;;;;15.27;13.97;;;22.00;99.90;;;;;;6199174;23;20420;-86
2021/08/15 06:36:43;;;;;;;15.03;13.73;;;22.10;99.90;;;;;;6199837;23;20414;-84
2021/08/15 06:39:12;;;;;;;13.40;12.17;;;22.20;99.90;;;;;;6200583;23;20410;-84
2021/08/15 06:41:40;;;;;;;13.80;12.70;;;22.40;99.90;;;;;;6199909;23;20492;-87
2021/08/15 06:44:08;;;;;;;15.47;14.10;;;22.50;99.90;;;;;;6199657;23;20423;-85
2021/08/15 06:46:40;;;;;;;14.60;13.33;;;22.60;99.90;;;;;;6199177;23;20397;-85
2021/08/15 06:49:23;;;;;;;;;;;;;;;;;;;;;
2021/08/15 07:10:07;;;;;;;12.90;11.80;;;23.50;99.90;;;;;;5814380;24;20932;-86
2021/08/15 07:12:36;;;;;;;14.20;13.10;;;23.60;99.90;;;;;;6008574;23;20453;-84
2021/08/15 07:15:11;;;;;;;13.90;12.67;;;23.60;99.90;;;;;;6201513;23;20402;-84
2021/08/15 07:23:52;;;;;;;13.43;12.20;;;23.90;99.90;;;;;;5867451;24;20421;-87
2021/08/15 07:26:19;;;;;;;12.43;11.37;;;23.90;99.90;;;;;;6082660;23;20414;-85
2021/08/15 07:28:49;;;;;;;12.83;11.67;;;24.10;99.90;;;;;;6199372;23;20457;-87
2021/08/15 07:31:17;;;;;;;14.23;13.03;;;24.20;99.90;;;;;;6200754;23;20410;-85
2021/08/15 07:33:46;;;;;;;12.43;11.53;;;24.20;99.90;;;;;;6200483;23;20398;-84
2021/08/15 07:36:13;;;;;;;11.63;10.53;;;24.40;99.90;;;;;;6200506;23;20402;-84
2021/08/15 07:38:46;;;;;;;12.30;11.30;;;24.50;99.90;;;;;;6199774;23;20968;-84
2021/08/15 07:41:18;;;;;;;14.10;12.70;;;24.60;99.90;;;;;;6200678;23;20431;-86
2021/08/15 07:43:51;;;;;;;13.57;12.27;;;24.70;99.90;;;;;;6203022;23;20458;-86
2021/08/15 07:46:27;;;;;;;;;;;;;;;;;;;;;
2021/08/15 07:48:56;;;;;;;13.00;12.00;;;24.80;99.90;;;;;;6200705;23;20417;-85
2021/08/15 07:51:35;;;;;;;;;;;;;;;;;;;;;
2021/08/15 08:47:05;;;;;;;11.33;10.37;;;26.80;99.70;;;;;;5959073;23;20442;-85
2021/08/15 08:49:37;;;;;;;12.63;11.50;;;26.80;99.80;;;;;;6166122;23;20420;-84
2021/08/15 08:52:05;;;;;;;11.97;10.87;;;26.90;99.90;;;;;;6198565;23;20432;-84
2021/08/15 08:54:36;;;;;;;13.27;12.17;;;27.00;99.40;;;;;;6199999;23;20805;-87
2021/08/15 08:57:04;;;;;;;11.67;10.67;;;27.10;98.80;;;;;;6199440;23;20756;-86
2021/08/15 08:59:31;;;;;;;12.50;11.50;;;27.10;98.80;;;;;;6198880;23;20832;-85
2021/08/15 09:01:57;;;;;;;11.63;10.73;;;27.20;99.10;;;;;;6199425;23;20501;-85
2021/08/15 09:04:24;;;;;;;11.43;10.53;;;27.20;99.00;;;;;;6198615;23;20418;-84
2021/08/15 09:06:51;;;;;;;11.87;10.90;;;27.20;98.80;;;;;;6199439;23;20441;-85
2021/08/15 09:09:23;;;;;;;11.53;10.53;;;27.40;99.40;;;;;;6198739;23;20491;-85
2021/08/15 09:11:59;;;;;;;13.50;12.20;;;27.50;98.40;;;;;;6197269;23;20403;-85
2021/08/15 09:14:47;;;;;;;12.37;11.37;;;27.60;98.80;;;;;;6198968;23;20385;-84
2021/08/15 09:17:25;;;;;;;11.67;10.53;;;27.70;98.30;;;;;;6199128;23;20542;-85
2021/08/15 09:19:54;;;;;;;12.30;11.30;;;27.90;98.00;;;;;;6198718;23;20384;-86
2021/08/15 09:22:24;;;;;;;13.80;12.50;;;27.90;97.90;;;;;;6197160;23;20430;-87
2021/08/15 09:25:09;;;;;;;;;;;;;;;;;;;;;
2021/08/15 09:28:17;;;;;;;;;;;;;;;;;;;;;
2021/08/15 09:30:46;;;;;;;11.50;10.50;;;28.10;97.50;;;;;;6161358;23;20448;-84
2021/08/15 09:33:24;;;;;;;11.90;10.80;;;28.20;97.20;;;;;;6197725;23;20450;-84
2021/08/15 09:36:35;;;;;;;14.60;13.30;;;28.40;97.00;;;;;;6198170;23;20425;-84
2021/08/15 09:39:29;;;;;;;11.50;10.70;;;28.60;97.00;;;;;;6197569;23;20455;-83
2021/08/15 09:45:45;;;;;;;;;;;;;;;;;;;;;
2021/08/15 09:48:32;;;;;;;13.13;11.93;;;29.00;96.60;;;;;;6012613;23;20482;-84
2021/08/15 09:51:20;;;;;;;;;;;;;;;;;;;;;
2021/08/15 09:54:01;;;;;;;12.30;11.27;;;29.30;95.90;;;;;;6194998;23;20480;-86
2021/08/15 09:56:34;;;;;;;12.17;11.07;;;29.50;95.60;;;;;;6197117;23;20413;-86
2021/08/15 09:59:20;;;;;;;19.13;12.50;;;29.60;94.50;;;;;;6197172;23;20437;-86
2021/08/15 10:01:48;;;;;;;13.20;12.00;;;29.60;95.10;;;;;;6197015;23;20394;-86
2021/08/15 10:07:58;;;;;;;12.90;11.80;;;29.70;94.70;;;;;;6196203;23;20446;-86
2021/08/15 10:13:49;;;;;;;12.60;11.63;;;29.90;94.60;;;;;;6194209;23;20521;-86
2021/08/15 10:16:46;;;;;;;16.30;13.00;;;29.90;94.80;;;;;;6019705;23;20424;-86
2021/08/15 10:25:09;;;;;;;13.20;12.20;;;30.70;94.20;;;;;;6193388;23;20404;-86
2021/08/15 10:27:50;;;;;;;12.70;11.70;;;30.90;93.90;;;;;;6196718;23;20437;-86
2021/08/15 10:31:01;;;;;;;;;;;;;;;;;;;;;
2021/08/15 10:34:10;;;;;;;;;;;;;;;;;;;;;
2021/08/15 10:43:32;;;;;;;;;;;;;;;;;;;;;
2021/08/15 10:46:27;;;;;;;;;;;;;;;;;;;;;
2021/08/15 10:49:50;;;;;;;12.73;11.63;;;32.40;90.00;;;;;;6120785;23;20407;-85
2021/08/15 10:52:40;;;;;;;;;;;;;;;;;;;;;
2021/08/15 10:55:38;;;;;;;;;;;;;;;;;;;;;
2021/08/15 11:01:44;;;;;;;12.27;11.47;;;32.60;88.50;;;;;;6191824;23;20391;-85
2021/08/15 11:04:38;;;;;;;11.90;10.90;;;32.50;88.30;;;;;;6211041;23;20407;-85
2021/08/15 11:07:38;;;;;;;12.80;10.97;;;32.20;89.70;;;;;;6211432;23;20417;-85
2021/08/15 11:10:06;;;;;;;13.17;11.60;;;32.00;90.10;;;;;;6208299;23;20416;-85
2021/08/15 11:12:35;;;;;;;14.30;13.10;;;31.80;90.80;;;;;;6211591;23;20428;-85
2021/08/15 11:15:34;;;;;;;;;;;;;;;;;;;;;
2021/08/15 11:22:06;;;;;;;18.40;12.43;;;32.70;90.50;;;;;;6032222;23;20462;-85
2021/08/15 11:31:27;;;;;;;;;;;;;;;;;;;;;
2021/08/15 12:04:33;;;;;;;11.33;10.30;;;31.00;87.50;;;;;;6106314;23;20446;-85
2021/08/15 12:53:06;;;;;;;26.93;24.17;;;25.80;99.90;;;;;;5819909;24;20433;-84
2021/08/15 12:59:47;;;;;;;;;;;;;;;;;;;;;
2021/08/15 13:03:18;;;;;;;;;;;;;;;;;;;;;
2021/08/15 13:06:03;;;;;;;25.50;23.40;;;25.20;99.90;;;;;;6165172;23;20442;-84
2021/08/15 13:09:08;;;;;;;;;;;;;;;;;;;;;
2021/08/15 13:12:09;;;;;;;26.33;23.80;;;24.60;99.90;;;;;;6195036;23;20438;-86
2021/08/15 13:14:39;;;;;;;26.00;23.30;;;24.60;99.90;;;;;;6180088;23;20525;-87
2021/08/15 13:17:26;;;;;;;19.60;17.50;;;24.60;99.90;;;;;;6193340;23;20434;-86
2021/08/15 13:20:33;;;;;;;17.83;16.30;;;24.30;99.90;;;;;;6194817;23;20430;-84
2021/08/15 13:23:12;;;;;;;16.40;13.37;;;24.10;99.90;;;;;;6095537;23;20418;-86
2021/08/15 13:28:37;;;;;;;;;;;;;;;;;;;;;
2021/08/15 13:31:32;;;;;;;;;;;;;;;;;;;;;
2021/08/15 13:34:25;;;;;;;7.57;6.77;;;22.50;99.90;;;;;;6198324;23;20990;-85
2021/08/15 13:43:39;;;;;;;;;;;;;;;;;;;;;
2021/08/15 13:50:06;;;;;;;;;;;;;;;;;;;;;
2021/08/15 13:59:09;;;;;;;5.97;5.50;;;21.50;99.90;;;;;;6184317;23;20922;-85
2021/08/15 14:01:44;;;;;;;6.53;5.73;;;21.60;99.90;;;;;;6185413;23;20483;-85
2021/08/15 14:04:19;;;;;;;7.37;6.63;;;21.70;99.90;;;;;;6186429;23;20403;-86
2021/08/15 14:07:05;;;;;;;7.97;6.60;;;21.60;99.90;;;;;;6185668;23;20486;-86
2021/08/15 14:09:37;;;;;;;9.23;6.53;;;21.60;99.90;;;;;;6185987;23;20730;-85
2021/08/15 14:12:12;;;;;;;8.13;7.10;;;21.50;99.90;;;;;;6185615;23;20915;-85
2021/08/15 14:15:10;;;;;;;8.90;7.43;;;21.50;99.90;;;;;;6186031;23;20482;-86
2021/08/15 14:18:04;;;;;;;11.73;10.53;;;21.50;99.90;;;;;;6188183;23;20431;-85
2021/08/15 14:20:32;;;;;;;16.33;13.33;;;21.60;99.90;;;;;;6195904;23;20475;-84
2021/08/15 14:28:52;;;;;;;7.80;7.20;;;21.60;99.90;;;;;;6165154;23;20757;-85
2021/08/15 14:31:28;;;;;;;13.30;8.70;;;21.70;99.90;;;;;;6189758;23;20440;-84
2021/08/15 15:32:02;;;;;;;6.87;6.17;;;32.90;94.30;;;;;;5991310;23;20424;-85
2021/08/15 15:41:03;;;;;;;;;;;;;;;;;;;;;
2021/08/15 18:04:49;;;;;;;;;;;;;;;;;;;;;
2021/08/15 18:10:39;;;;;;;11.00;7.63;;;23.00;99.90;;;;;;6189573;23;20407;-85
2021/08/15 18:29:40;;;;;;;9.63;8.63;;;23.40;99.90;;;;;;6050907;23;20409;-86
2021/08/15 18:35:28;;;;;;;10.23;9.40;;;23.40;99.90;;;;;;6189256;23;20445;-86
2021/08/15 18:41:28;;;;;;;9.30;8.40;;;23.00;99.90;;;;;;6190957;23;20462;-85
2021/08/15 18:44:03;;;;;;;12.37;11.40;;;23.00;99.90;;;;;;6188953;23;20427;-86
2021/08/15 18:46:59;;;;;;;11.40;10.40;;;22.90;99.90;;;;;;6189842;23;20427;-86
2021/08/15 18:49:44;;;;;;;10.90;10.00;;;23.00;99.90;;;;;;6190089;23;20903;-86
2021/08/15 18:52:18;;;;;;;9.57;8.70;;;22.90;99.90;;;;;;6190584;23;20483;-86
2021/08/15 19:00:55;;;;;;;10.63;9.53;;;22.80;99.90;;;;;;6187006;23;20433;-86
2021/08/15 19:03:43;;;;;;;11.00;10.10;;;22.70;99.90;;;;;;6189653;23;20806;-86
2021/08/15 19:06:10;;;;;;;10.73;9.80;;;22.60;99.90;;;;;;6166824;23;20606;-86
2021/08/15 19:09:00;;;;;;;11.37;10.27;;;22.60;99.90;;;;;;6192030;23;20481;-86
2021/08/15 19:11:32;;;;;;;11.60;10.70;;;22.60;99.90;;;;;;6191758;23;20375;-86
2021/08/15 19:14:29;;;;;;;;;;;;;;;;;;;;;
2021/08/15 19:17:36;;;;;;;;;;;;;;;;;;;;;
2021/08/15 19:33:21;;;;;;;12.57;11.43;;;22.20;99.90;;;;;;6134072;23;20438;-86
2021/08/15 19:40:01;;;;;;;13.13;11.90;;;22.20;99.90;;;;;;5901121;23;20434;-86
2021/08/15 19:43:22;;;;;;;12.67;11.57;;;22.10;99.90;;;;;;5984704;24;20461;-86
2021/08/15 19:46:01;;;;;;;11.23;10.20;;;22.10;99.90;;;;;;6091562;23;20418;-86
2021/08/15 20:02:48;;;;;;;13.17;11.93;;;21.90;99.90;;;;;;6121329;23;20407;-86
2021/08/15 20:44:44;;;;;;;;;;;;;;;;;;;;;
2021/08/15 20:57:54;;;;;;;;;;;;;;;;;;;;;
